Time;durP1;ratioP1;P1;durP2;ratioP2;P2;SDS_P1;SDS_P2;PMS_P1;PMS_P2;Temp;Humidity;BMP_temperature;BMP_pressure;BME280_temperature;BME280_humidity;BME280_pressure;Samples;Min_cycle;Max_cycle;Signal;HPM_P1;HPM_P2
2024/01/20 00:00:49;;;;;;;1.22;0.75;;;-15.50;99.90;;;;;;2027188;70;26958;-90
2024/01/20 00:04:22;;;;;;;0.70;0.70;;;-15.60;99.90;;;;;;1969633;72;25223;-90
2024/01/20 00:07:37;;;;;;;7.23;2.13;;;-15.60;99.90;;;;;;1972001;72;25226;-90
2024/01/20 01:27:09;;;;;;;4.17;1.90;;;-15.30;99.90;;;;;;1954419;72;27088;-90
2024/01/20 01:30:07;;;;;;;3.03;1.93;;;-15.30;99.90;;;;;;1916247;74;25653;-90
2024/01/20 01:33:02;;;;;;;4.12;1.40;;;-15.30;99.90;;;;;;1916132;74;25349;-90
2024/01/20 01:35:51;;;;;;;4.15;1.52;;;-15.30;99.90;;;;;;1910563;74;25713;-90
2024/01/20 01:38:43;;;;;;;6.03;1.45;;;-15.30;99.90;;;;;;1912967;74;25700;-90
2024/01/20 01:41:43;;;;;;;0.78;0.68;;;-15.30;99.90;;;;;;1914130;74;25755;-90
2024/01/20 01:44:51;;;;;;;1.62;0.75;;;-15.30;99.90;;;;;;1900142;75;25216;-89
2024/01/20 01:47:44;;;;;;;0.85;0.70;;;-15.20;99.90;;;;;;1897407;74;25208;-90
2024/01/20 01:50:35;;;;;;;0.83;0.60;;;-15.10;99.90;;;;;;1902938;74;25163;-90
2024/01/20 01:53:27;;;;;;;0.70;0.70;;;-15.10;99.90;;;;;;1904586;74;25825;-90
2024/01/20 01:56:23;;;;;;;3.67;1.53;;;-15.00;99.90;;;;;;1914225;74;25589;-90
2024/01/20 01:59:17;;;;;;;5.92;1.57;;;-15.00;99.90;;;;;;1905132;74;25953;-90
2024/01/20 02:02:16;;;;;;;3.75;1.15;;;-15.10;99.90;;;;;;1896439;74;25242;-90
2024/01/20 02:05:10;;;;;;;2.95;1.15;;;-15.10;99.90;;;;;;1880460;74;25791;-90
2024/01/20 02:08:08;;;;;;;1.00;0.97;;;-15.10;99.90;;;;;;1876017;74;25773;-90
2024/01/20 02:11:18;;;;;;;3.45;1.40;;;-15.10;99.90;;;;;;1902553;74;25276;-90
2024/01/20 02:14:09;;;;;;;0.60;0.60;;;-15.20;99.90;;;;;;1893107;75;25260;-91
2024/01/20 02:17:01;;;;;;;5.85;1.27;;;-15.30;99.90;;;;;;1880975;74;25638;-90
2024/01/20 02:28:14;;;;;;;4.35;1.65;;;-15.50;99.90;;;;;;1980966;72;29474;-90
2024/01/20 02:31:08;;;;;;;6.60;1.30;;;-15.70;99.90;;;;;;1918684;73;25301;-90
2024/01/20 02:34:00;;;;;;;2.33;1.10;;;-15.80;99.90;;;;;;1993716;71;26281;-90
2024/01/20 02:37:11;;;;;;;1.30;1.05;;;-15.80;99.90;;;;;;1991984;71;25287;-90
2024/01/20 03:12:09;;;;;;;0.40;0.40;;;-16.60;99.90;;;;;;1915444;73;25444;-90
2024/01/20 03:15:29;;;;;;;0.50;0.50;;;-16.70;99.90;;;;;;1938763;73;25189;-90
2024/01/20 03:18:42;;;;;;;0.28;0.28;;;-16.80;99.90;;;;;;1917538;73;25202;-90
2024/01/20 03:52:14;;;;;;;3.15;1.00;;;-17.20;99.90;;;;;;1983326;71;26721;-90
2024/01/20 03:55:28;;;;;;;1.13;0.73;;;-17.30;99.90;;;;;;1961665;72;25215;-90
2024/01/20 03:58:25;;;;;;;0.53;0.53;;;-17.30;99.90;;;;;;2032595;69;26360;-89
2024/01/20 05:57:13;;;;;;;15.45;4.65;;;-18.50;99.90;;;;;;1988168;71;28232;-89
2024/01/20 06:00:16;;;;;;;0.62;0.60;;;-18.60;99.90;;;;;;1955981;72;25237;-89
2024/01/20 06:03:27;;;;;;;1.47;1.12;;;-18.60;99.90;;;;;;2060288;69;25801;-90
2024/01/20 06:26:58;;;;;;;7.85;2.40;;;-18.70;99.90;;;;;;1901342;75;27146;-89
2024/01/20 06:30:27;;;;;;;4.20;1.87;;;-18.60;99.90;;;;;;1861218;76;25221;-89
2024/01/20 06:33:57;;;;;;;3.47;0.98;;;-18.70;99.90;;;;;;1880225;76;25298;-89
2024/01/20 06:37:10;;;;;;;14.03;3.70;;;-18.70;99.90;;;;;;1878578;76;25221;-89
2024/01/20 06:43:35;;;;;;;4.45;1.47;;;-18.70;99.90;;;;;;1953032;72;27774;-89
2024/01/20 06:50:30;;;;;;;0.57;0.57;;;-18.90;99.90;;;;;;1902169;75;25718;-88
2024/01/20 06:53:32;;;;;;;0.55;0.50;;;-18.90;99.90;;;;;;1907308;75;25261;-88
2024/01/20 06:56:49;;;;;;;0.65;0.42;;;-19.00;99.90;;;;;;1898593;75;25748;-88
2024/01/20 07:00:21;;;;;;;2.60;1.00;;;-19.10;99.90;;;;;;1901810;75;25251;-88
2024/01/20 07:06:39;;;;;;;0.37;0.37;;;-19.20;99.90;;;;;;1913655;75;25325;-88
2024/01/20 07:09:48;;;;;;;0.50;0.50;;;-19.20;99.90;;;;;;1911011;75;25233;-88
2024/01/20 07:12:52;;;;;;;0.88;0.88;;;-19.30;99.90;;;;;;1908617;75;25262;-89
2024/01/20 07:15:55;;;;;;;6.33;1.12;;;-19.40;99.90;;;;;;1906140;75;25234;-88
2024/01/20 07:19:08;;;;;;;1.07;0.90;;;-19.40;99.90;;;;;;1880236;75;25178;-88
2024/01/20 07:29:56;;;;;;;0.50;0.40;;;-19.60;99.90;;;;;;1908146;75;25275;-89
2024/01/20 07:36:20;;;;;;;2.05;0.75;;;-19.70;99.90;;;;;;1911036;75;25304;-89
2024/01/20 07:42:22;;;;;;;0.40;0.40;;;-19.90;99.90;;;;;;1947843;72;27345;-88
2024/01/20 07:45:11;;;;;;;1.05;1.02;;;-20.00;99.90;;;;;;1917008;73;25273;-89
2024/01/20 07:48:26;;;;;;;0.40;0.40;;;-20.00;99.90;;;;;;1896144;75;25176;-88
2024/01/20 07:51:20;;;;;;;1.98;0.98;;;-20.00;99.90;;;;;;1883758;75;25842;-88
2024/01/20 07:54:22;;;;;;;0.37;0.37;;;-20.10;99.90;;;;;;1907902;73;25585;-88
2024/01/20 07:57:31;;;;;;;2.05;0.80;;;-20.10;99.90;;;;;;1899277;75;25283;-89
2024/01/20 08:00:24;;;;;;;0.90;0.40;;;-20.10;99.90;;;;;;1886001;74;25260;-88
2024/01/20 08:03:50;;;;;;;0.65;0.65;;;-20.10;99.90;;;;;;1896869;74;25205;-88
2024/01/20 08:07:12;;;;;;;1.05;0.90;;;-20.00;99.90;;;;;;1893186;75;25613;-89
2024/01/20 08:10:10;;;;;;;0.40;0.40;;;-20.00;99.90;;;;;;1919221;73;25843;-89
2024/01/20 08:13:04;;;;;;;1.32;0.70;;;-20.00;99.90;;;;;;1886779;75;25288;-89
2024/01/20 08:44:59;;;;;;;7.45;1.82;;;-19.00;99.90;;;;;;1975562;71;27181;-89
2024/01/20 08:51:15;;;;;;;2.20;1.62;;;-18.50;99.90;;;;;;1942432;72;27158;-89
2024/01/20 08:58:14;;;;;;;1.47;1.37;;;-18.10;99.90;;;;;;1917630;73;25284;-89
2024/01/20 10:33:55;;;;;;;6.07;1.93;;;-16.00;99.90;;;;;;1980355;71;26980;-90
2024/01/20 10:36:49;;;;;;;4.67;2.03;;;-15.50;99.90;;;;;;1961668;73;25853;-89
2024/01/20 10:42:49;;;;;;;1.17;1.10;;;-15.30;99.90;;;;;;1953695;72;26490;-90
2024/01/20 12:18:35;;;;;;;3.97;1.93;;;-13.50;99.90;;;;;;1977592;71;26270;-90
2024/01/20 12:25:16;;;;;;;0.80;0.57;;;-13.50;99.90;;;;;;2060436;69;25411;-89
2024/01/20 12:28:09;;;;;;;1.50;0.97;;;-13.40;99.90;;;;;;2048524;69;25544;-91
2024/01/20 12:31:08;;;;;;;0.20;0.20;;;-13.50;99.90;;;;;;2052526;68;25394;-90
2024/01/20 12:34:52;;;;;;;5.73;2.07;;;-13.60;99.90;;;;;;2044985;68;25452;-91
2024/01/20 13:13:16;;;;;;;5.73;3.00;;;-13.50;99.90;;;;;;1869663;75;26482;-91
2024/01/20 14:09:24;;;;;;;7.63;3.67;;;-13.70;99.90;;;;;;1930341;73;27019;-89
2024/01/20 14:12:13;;;;;;;9.63;3.73;;;-13.80;99.90;;;;;;1901801;74;25329;-89
2024/01/20 14:15:02;;;;;;;13.93;4.03;;;-13.90;99.90;;;;;;1897098;74;25313;-89
2024/01/20 14:18:00;;;;;;;11.13;3.00;;;-14.10;99.90;;;;;;1914620;75;25964;-90
2024/01/20 14:20:55;;;;;;;16.63;5.43;;;-14.20;99.90;;;;;;1907547;75;25452;-90
2024/01/20 14:28:40;;;;;;;11.17;3.63;;;-14.40;99.90;;;;;;1979880;71;26421;-89
2024/01/20 14:31:31;;;;;;;10.43;3.57;;;-14.70;99.90;;;;;;2027874;69;25353;-90
2024/01/20 14:34:23;;;;;;;7.67;3.53;;;-14.80;99.90;;;;;;2021581;69;25663;-90
2024/01/20 14:37:12;;;;;;;4.83;2.37;;;-14.80;99.90;;;;;;2022595;70;25820;-90
2024/01/20 14:40:04;;;;;;;8.97;2.13;;;-14.80;99.90;;;;;;2029713;70;25451;-90
2024/01/20 14:42:52;;;;;;;4.80;2.30;;;-14.80;99.90;;;;;;2024499;69;25907;-90
2024/01/20 14:45:41;;;;;;;3.97;2.33;;;-14.60;99.90;;;;;;2029085;70;25328;-90
2024/01/20 14:48:30;;;;;;;8.43;2.77;;;-14.60;99.90;;;;;;1990773;72;25424;-90
2024/01/20 14:51:23;;;;;;;8.50;2.70;;;-14.60;99.90;;;;;;1991131;70;25447;-90
2024/01/20 14:54:57;;;;;;;2.00;1.50;;;-14.50;99.90;;;;;;1977432;70;25463;-90
2024/01/20 15:51:13;;;;;;;8.87;3.73;;;-13.90;99.90;;;;;;1925942;72;26411;-88
2024/01/20 15:56:44;;;;;;;4.13;2.40;;;-13.80;99.90;;;;;;1922817;72;27051;-88
2024/01/20 15:59:33;;;;;;;3.50;2.33;;;-13.60;99.90;;;;;;1908902;73;25479;-89
2024/01/20 16:02:21;;;;;;;3.70;2.00;;;-13.60;99.90;;;;;;1910740;73;25386;-88
2024/01/20 16:05:11;;;;;;;1.83;1.50;;;-13.50;99.90;;;;;;1871092;75;25363;-87
2024/01/20 16:08:00;;;;;;;5.57;2.27;;;-13.60;99.90;;;;;;1832566;78;25951;-88
2024/01/20 16:10:49;;;;;;;5.60;2.30;;;-13.60;99.90;;;;;;1815582;78;25510;-88
2024/01/20 16:13:37;;;;;;;7.17;3.03;;;-13.50;99.90;;;;;;1919725;73;25455;-89
2024/01/20 16:16:26;;;;;;;1.63;1.40;;;-13.40;99.90;;;;;;1902816;73;25527;-87
2024/01/20 16:19:15;;;;;;;4.60;2.40;;;-13.30;99.90;;;;;;1857741;75;25927;-87
2024/01/20 16:22:05;;;;;;;3.67;1.97;;;-13.30;99.90;;;;;;1920846;73;25432;-86
2024/01/20 16:24:54;;;;;;;5.40;3.03;;;-13.40;99.90;;;;;;1875309;76;25508;-87
2024/01/20 16:27:45;;;;;;;7.47;1.90;;;-13.50;99.90;;;;;;1844757;76;25481;-87
2024/01/20 16:30:35;;;;;;;9.57;3.23;;;-13.30;99.90;;;;;;1869315;76;25282;-89
2024/01/20 16:33:44;;;;;;;4.13;2.43;;;-13.20;99.90;;;;;;1824864;76;25490;-87
2024/01/20 16:36:36;;;;;;;13.73;4.67;;;-13.20;99.90;;;;;;1827424;76;25536;-89
2024/01/20 16:46:56;;;;;;;14.40;4.70;;;-13.00;99.90;;;;;;1902490;74;25456;-88
2024/01/20 16:49:47;;;;;;;7.93;1.67;;;-13.00;99.90;;;;;;1891583;74;25891;-88
2024/01/20 16:53:28;;;;;;;0.50;0.50;;;-12.90;99.90;;;;;;1902585;74;25524;-88
2024/01/20 16:56:20;;;;;;;1.90;1.53;;;-12.80;99.90;;;;;;1897532;74;25329;-89
2024/01/20 16:59:10;;;;;;;0.50;0.43;;;-12.80;99.90;;;;;;1911204;74;25558;-89
2024/01/20 17:01:59;;;;;;;4.97;2.90;;;-12.80;99.90;;;;;;1891879;74;25540;-89
2024/01/20 17:04:48;;;;;;;6.80;2.37;;;-12.70;99.90;;;;;;1900242;74;25341;-88
2024/01/20 17:07:38;;;;;;;13.00;3.47;;;-12.60;99.90;;;;;;1903561;74;25829;-89
2024/01/20 17:14:31;;;;;;;2.00;1.67;;;-12.50;99.90;;;;;;1895326;74;25340;-88
2024/01/20 17:54:24;;;;;;;51.13;9.57;;;-11.70;99.90;;;;;;1926054;72;27053;-89
2024/01/20 18:00:58;;;;;;;10.07;3.30;;;-11.50;99.90;;;;;;1935360;72;25519;-89
2024/01/20 18:04:08;;;;;;;9.37;3.10;;;-11.50;99.90;;;;;;1892879;75;25464;-89
2024/01/20 18:10:44;;;;;;;16.87;6.50;;;-11.40;99.90;;;;;;1888599;75;25396;-89
2024/01/20 18:13:32;;;;;;;8.70;4.57;;;-11.40;99.90;;;;;;1869729;74;25921;-89
2024/01/20 18:16:21;;;;;;;26.93;7.10;;;-11.30;99.90;;;;;;1903653;75;25347;-90
2024/01/20 18:19:46;;;;;;;45.27;8.77;;;-11.10;99.90;;;;;;1874931;74;25781;-89
2024/01/20 20:55:36;;;;;;;76.90;13.90;;;-6.90;99.90;;;;;;1828664;76;25957;-93
